Tamara — HOEH — position and weather

sailwx.info

Track history (hours):
 
Tides and Currents Weather Stations Pressure Air Temp Water Temp Dewpoint Dewpoint Depression Visibility Wind Speed Wind Dir Waves Ship Positions

Tamara

Last reported at 2014-Nov-26 15:12 UTC. Time now 2014-Nov-26 18:42 UTC.
Position N 39°33' E 024°15'.

Length 117 m; draft 5.7 m.

Type: Ship (hazmat cat A). MMSI: 353900000.

Date/timePositionNaut miles runAvg speedWind from/ knotsBaromVisibWave heightAir tempDewpointWater temp
2014-Nov-26 15:12N 39°33' E 024°15'912.8
2014-Nov-26 14:32N 39°37' E 024°06'1 0.0
2014-Nov-25 03:33N 39°36' E 024°06'10610.5
2014-Nov-24 17:31N 37°52' E 024°29'1212.2
2014-Nov-24 16:31N 37°44' E 024°18'1111.8
2014-Nov-24 15:33N 37°37' E 024°06'1513.0
2014-Nov-24 14:25N 37°38' E 023°48'1112.5
2014-Nov-24 13:34N 37°46' E 023°38'1211.7
2014-Nov-24 12:33N 37°57' E 023°34'5 4.5
2014-Nov-24 11:31N 38°02' E 023°36'0 0.0
2014-Nov-24 10:31N 38°02' E 023°36'0 0.0
2014-Nov-24 09:31N 38°02' E 023°36'0 0.0
2014-Nov-24 08:31N 38°02' E 023°36'0 0.0
2014-Nov-24 07:31N 38°02' E 023°36'0 0.0
2014-Nov-24 06:31N 38°02' E 023°36'0 0.0
2014-Nov-24 05:31N 38°02' E 023°36'0 0.0
2014-Nov-24 04:31N 38°02' E 023°36'0 0.0
2014-Nov-24 03:34N 38°02' E 023°36'0 0.0
2014-Nov-24 02:33N 38°02' E 023°36'0 0.0
2014-Nov-24 01:33N 38°02' E 023°36'0 0.0
2014-Nov-24 00:33N 38°02' E 023°36'0 0.0
2014-Nov-23 23:33N 38°02' E 023°36'0 0.0
2014-Nov-23 22:33N 38°02' E 023°36'0 0.0
2014-Nov-23 21:33N 38°02' E 023°36'0 0.0
2014-Nov-23 20:33N 38°02' E 023°36'0 0.0
2014-Nov-23 19:33N 38°02' E 023°36'0 0.0
2014-Nov-23 18:30N 38°02' E 023°36'0 0.0
2014-Nov-23 17:33N 38°02' E 023°36'0 0.0
2014-Nov-23 16:33N 38°02' E 023°36'0 0.0
2014-Nov-23 15:33N 38°02' E 023°36'0 0.0
2014-Nov-23 14:33N 38°02' E 023°36'0 0.0
2014-Nov-23 13:33N 38°02' E 023°36'0 0.0
2014-Nov-23 12:30N 38°02' E 023°36'0 0.0
2014-Nov-23 11:33N 38°02' E 023°36'0 0.0
2014-Nov-23 10:33N 38°02' E 023°36'0 0.0
2014-Nov-23 09:30N 38°02' E 023°36'0 0.0
2014-Nov-23 08:33N 38°02' E 023°36'5 4.7
2014-Nov-23 07:33N 37°57' E 023°33'3 3.2
2014-Nov-23 06:34N 37°55' E 023°36'1 1.5
2014-Nov-23 05:33N 37°54' E 023°37'1110.5
2014-Nov-23 04:34N 37°44' E 023°43'  
2014-Nov-18 15:31N 34°41' E 024°40'  
Track history (hours):
 
Tides and Currents Weather Stations Pressure Air Temp Water Temp Dewpoint Dewpoint Depression Visibility Wind Speed Wind Dir Waves Ship Positions

Tamara

Last reported at 2014-Nov-26 15:12 UTC. Time now 2014-Nov-26 18:42 UTC.
Position N 39°33' E 024°15'.

Length 117 m; draft 5.7 m.

Type: Ship (hazmat cat A). MMSI: 353900000.

Date/timePositionNaut miles runAvg speedWind from/ knotsBaromVisibWave heightAir tempDewpointWater temp
2014-Nov-26 15:12N 39°33' E 024°15'912.8
2014-Nov-26 14:32N 39°37' E 024°06'1 0.0
2014-Nov-25 03:33N 39°36' E 024°06'10610.5
2014-Nov-24 17:31N 37°52' E 024°29'1212.2
2014-Nov-24 16:31N 37°44' E 024°18'1111.8
2014-Nov-24 15:33N 37°37' E 024°06'1513.0
2014-Nov-24 14:25N 37°38' E 023°48'1112.5
2014-Nov-24 13:34N 37°46' E 023°38'1211.7
2014-Nov-24 12:33N 37°57' E 023°34'5 4.5
2014-Nov-24 11:31N 38°02' E 023°36'0 0.0
2014-Nov-24 10:31N 38°02' E 023°36'0 0.0
2014-Nov-24 09:31N 38°02' E 023°36'0 0.0
2014-Nov-24 08:31N 38°02' E 023°36'0 0.0
2014-Nov-24 07:31N 38°02' E 023°36'0 0.0
2014-Nov-24 06:31N 38°02' E 023°36'0 0.0
2014-Nov-24 05:31N 38°02' E 023°36'0 0.0
2014-Nov-24 04:31N 38°02' E 023°36'0 0.0
2014-Nov-24 03:34N 38°02' E 023°36'0 0.0
2014-Nov-24 02:33N 38°02' E 023°36'0 0.0
2014-Nov-24 01:33N 38°02' E 023°36'0 0.0
2014-Nov-24 00:33N 38°02' E 023°36'0 0.0
2014-Nov-23 23:33N 38°02' E 023°36'0 0.0
2014-Nov-23 22:33N 38°02' E 023°36'0 0.0
2014-Nov-23 21:33N 38°02' E 023°36'0 0.0
2014-Nov-23 20:33N 38°02' E 023°36'0 0.0
2014-Nov-23 19:33N 38°02' E 023°36'0 0.0
2014-Nov-23 18:30N 38°02' E 023°36'0 0.0
2014-Nov-23 17:33N 38°02' E 023°36'0 0.0
2014-Nov-23 16:33N 38°02' E 023°36'0 0.0
2014-Nov-23 15:33N 38°02' E 023°36'0 0.0
2014-Nov-23 14:33N 38°02' E 023°36'0 0.0
2014-Nov-23 13:33N 38°02' E 023°36'0 0.0
2014-Nov-23 12:30N 38°02' E 023°36'0 0.0
2014-Nov-23 11:33N 38°02' E 023°36'0 0.0
2014-Nov-23 10:33N 38°02' E 023°36'0 0.0
2014-Nov-23 09:30N 38°02' E 023°36'0 0.0
2014-Nov-23 08:33N 38°02' E 023°36'5 4.7
2014-Nov-23 07:33N 37°57' E 023°33'3 3.2
2014-Nov-23 06:34N 37°55' E 023°36'1 1.5
2014-Nov-23 05:33N 37°54' E 023°37'1110.5
2014-Nov-23 04:34N 37°44' E 023°43'  
2014-Nov-18 15:31N 34°41' E 024°40'  

Dump ship's entire track history